UAL1836 KDEN-KMKE
Flight info
| Callsign | UAL1836 |
|---|---|
| Flight time | 1h 50m |
| Altitude | 35000 |
| Route | EEONS8 WYNDM OBH OGECA GOPAC3 |
| Aircraft | A20N/M-SDE2E3FGHIRWXY/LB1 |
Departure
| Time | 2026-04-22 17:42 |
|---|---|
| Airport | Denver International Airport (KDEN) |
Arrival
| Time | 2026-04-22 19:32 |
|---|---|
| Airport | General Mitchell International Airport (KMKE) |
| Time | Latitude | Longitude | Altitude | Speed | Heading |
|---|---|---|---|---|---|
| 2026-04-22 17:19 | 39.85802 | -104.66994 | 5387 ft | 0 kts | 0° |
| 2026-04-22 17:31 | 39.85787 | -104.66994 | 5384 ft | 2 kts | 360° |
| 2026-04-22 17:31 | 39.85770 | -104.66994 | 5385 ft | 2 kts | 360° |
| 2026-04-22 17:31 | 39.85756 | -104.66994 | 5385 ft | 2 kts | 360° |
| 2026-04-22 17:31 | 39.85748 | -104.66994 | 5385 ft | 0 kts | 328° |
| 2026-04-22 17:32 | 39.85735 | -104.66986 | 5382 ft | 2 kts | 345° |
| 2026-04-22 17:32 | 39.85728 | -104.66984 | 5385 ft | 0 kts | 345° |
| 2026-04-22 17:36 | 39.85730 | -104.66983 | 5384 ft | 1 kts | 1° |
| 2026-04-22 17:36 | 39.85730 | -104.66914 | 5383 ft | 13 kts | 93° |
| 2026-04-22 17:36 | 39.85685 | -104.66811 | 5387 ft | 14 kts | 137° |
| 2026-04-22 17:36 | 39.85659 | -104.66689 | 5387 ft | 15 kts | 92° |
| 2026-04-22 17:37 | 39.85669 | -104.66557 | 5387 ft | 15 kts | 66° |
| 2026-04-22 17:37 | 39.85676 | -104.66429 | 5385 ft | 14 kts | 91° |
| 2026-04-22 17:37 | 39.85678 | -104.66326 | 5394 ft | 9 kts | 88° |
| 2026-04-22 17:37 | 39.85690 | -104.66262 | 5396 ft | 8 kts | 60° |
| 2026-04-22 17:38 | 39.85754 | -104.66238 | 5393 ft | 13 kts | 2° |
| 2026-04-22 17:38 | 39.85869 | -104.66236 | 5394 ft | 20 kts | 360° |
| 2026-04-22 17:38 | 39.86038 | -104.66241 | 5389 ft | 28 kts | 360° |
| 2026-04-22 17:38 | 39.86258 | -104.66232 | 5383 ft | 34 kts | 1° |
| 2026-04-22 17:39 | 39.86436 | -104.66231 | 5385 ft | 24 kts | 0° |
| 2026-04-22 17:39 | 39.86501 | -104.66057 | 5377 ft | 28 kts | 91° |
| 2026-04-22 17:39 | 39.86494 | -104.65433 | 5361 ft | 39 kts | 91° |
| 2026-04-22 17:40 | 39.86490 | -104.65075 | 5355 ft | 40 kts | 91° |
| 2026-04-22 17:40 | 39.86487 | -104.64727 | 5349 ft | 37 kts | 88° |
| 2026-04-22 17:40 | 39.86488 | -104.64476 | 5341 ft | 23 kts | 90° |
| 2026-04-22 17:40 | 39.86487 | -104.64271 | 5334 ft | 24 kts | 90° |
| 2026-04-22 17:41 | 39.86410 | -104.64128 | 5337 ft | 22 kts | 180° |
| 2026-04-22 17:41 | 39.86129 | -104.64135 | 5341 ft | 76 kts | 180° |
| 2026-04-22 17:41 | 39.85366 | -104.64145 | 5351 ft | 142 kts | 180° |
| 2026-04-22 17:41 | 39.84236 | -104.64149 | 5691 ft | 172 kts | 182° |
| 2026-04-22 17:42 | 39.83008 | -104.64128 | 6574 ft | 181 kts | 183° |
| 2026-04-22 17:42 | 39.81732 | -104.64103 | 7311 ft | 183 kts | 180° |
| 2026-04-22 17:42 | 39.80884 | -104.63829 | 7540 ft | 200 kts | 159° |
| 2026-04-22 17:42 | 39.79752 | -104.62557 | 7799 ft | 231 kts | 135° |
| 2026-04-22 17:43 | 39.78191 | -104.60384 | 8205 ft | 261 kts | 139° |
| 2026-04-22 17:43 | 39.77365 | -104.59180 | 8406 ft | 280 kts | 129° |
| 2026-04-22 17:43 | 39.76726 | -104.56705 | 8942 ft | 302 kts | 96° |
| 2026-04-22 17:43 | 39.76964 | -104.53945 | 9643 ft | 313 kts | 78° |
| 2026-04-22 17:44 | 39.77632 | -104.51222 | 10214 ft | 327 kts | 71° |
| 2026-04-22 17:44 | 39.78500 | -104.48365 | 10442 ft | 350 kts | 70° |
| 2026-04-22 17:44 | 39.79425 | -104.45376 | 10921 ft | 360 kts | 70° |
| 2026-04-22 17:44 | 39.80316 | -104.42305 | 11544 ft | 367 kts | 71° |
| 2026-04-22 17:45 | 39.81225 | -104.39178 | 12180 ft | 372 kts | 66° |
| 2026-04-22 17:45 | 39.82408 | -104.36159 | 12825 ft | 377 kts | 63° |
| 2026-04-22 17:45 | 39.83625 | -104.33114 | 13465 ft | 382 kts | 63° |
| 2026-04-22 17:45 | 39.84853 | -104.30031 | 14055 ft | 387 kts | 63° |
| 2026-04-22 17:46 | 39.86100 | -104.26898 | 14651 ft | 391 kts | 63° |
| 2026-04-22 17:46 | 39.87357 | -104.23744 | 15251 ft | 394 kts | 63° |
| 2026-04-22 17:46 | 39.88624 | -104.20568 | 15836 ft | 397 kts | 64° |
| 2026-04-22 17:46 | 39.89896 | -104.17384 | 16526 ft | 397 kts | 64° |
| 2026-04-22 17:47 | 39.91178 | -104.14182 | 17164 ft | 399 kts | 64° |
| 2026-04-22 17:47 | 39.92453 | -104.10969 | 17778 ft | 402 kts | 65° |
| 2026-04-22 17:47 | 39.93736 | -104.07699 | 18362 ft | 405 kts | 65° |
| 2026-04-22 17:47 | 39.94999 | -104.04452 | 18914 ft | 409 kts | 65° |
| 2026-04-22 17:48 | 39.96288 | -104.01128 | 19475 ft | 413 kts | 65° |
| 2026-04-22 17:48 | 39.97589 | -103.97779 | 20030 ft | 417 kts | 65° |
| 2026-04-22 17:48 | 39.98901 | -103.94385 | 20572 ft | 420 kts | 67° |
| 2026-04-22 17:48 | 39.99930 | -103.90820 | 21099 ft | 421 kts | 77° |
| 2026-04-22 17:49 | 40.00561 | -103.87087 | 21620 ft | 423 kts | 82° |
| 2026-04-22 17:49 | 40.01148 | -103.83307 | 22119 ft | 428 kts | 82° |
| 2026-04-22 17:49 | 40.01746 | -103.79488 | 22601 ft | 432 kts | 82° |
| 2026-04-22 17:49 | 40.02358 | -103.75622 | 23095 ft | 437 kts | 81° |
| 2026-04-22 17:50 | 40.02989 | -103.71729 | 23529 ft | 441 kts | 81° |
| 2026-04-22 17:50 | 40.03638 | -103.67804 | 23960 ft | 444 kts | 81° |
| 2026-04-22 17:50 | 40.04295 | -103.63857 | 24386 ft | 447 kts | 81° |
| 2026-04-22 17:50 | 40.04955 | -103.59881 | 24814 ft | 449 kts | 81° |
| 2026-04-22 17:51 | 40.05619 | -103.55875 | 25226 ft | 452 kts | 81° |
| 2026-04-22 17:51 | 40.06273 | -103.51904 | 25629 ft | 455 kts | 81° |
| 2026-04-22 17:51 | 40.06946 | -103.47803 | 26047 ft | 457 kts | 81° |
| 2026-04-22 17:51 | 40.07600 | -103.43779 | 26487 ft | 458 kts | 82° |
| 2026-04-22 17:52 | 40.08258 | -103.39698 | 27025 ft | 461 kts | 82° |
| 2026-04-22 17:52 | 40.08907 | -103.35650 | 27428 ft | 463 kts | 82° |
| 2026-04-22 17:52 | 40.09566 | -103.31524 | 27841 ft | 465 kts | 82° |
| 2026-04-22 17:52 | 40.10228 | -103.27376 | 28239 ft | 468 kts | 82° |
| 2026-04-22 17:53 | 40.10894 | -103.23207 | 28623 ft | 470 kts | 82° |
| 2026-04-22 17:53 | 40.11564 | -103.19019 | 29001 ft | 472 kts | 82° |
| 2026-04-22 17:53 | 40.12236 | -103.14810 | 29379 ft | 475 kts | 82° |
| 2026-04-22 17:53 | 40.12912 | -103.10572 | 29574 ft | 477 kts | 82° |
| 2026-04-22 17:54 | 40.13589 | -103.06320 | 29918 ft | 479 kts | 82° |
| 2026-04-22 17:54 | 40.14266 | -103.02055 | 30235 ft | 481 kts | 82° |
| 2026-04-22 17:54 | 40.14944 | -102.97774 | 30548 ft | 482 kts | 82° |
| 2026-04-22 17:54 | 40.15623 | -102.93471 | 30858 ft | 484 kts | 82° |
| 2026-04-22 17:55 | 40.16301 | -102.89154 | 31162 ft | 486 kts | 82° |
| 2026-04-22 17:55 | 40.16977 | -102.84832 | 31548 ft | 485 kts | 83° |
| 2026-04-22 17:55 | 40.17650 | -102.80521 | 31988 ft | 483 kts | 83° |
| 2026-04-22 17:55 | 40.18322 | -102.76220 | 32407 ft | 482 kts | 83° |
| 2026-04-22 17:56 | 40.18990 | -102.71938 | 32877 ft | 480 kts | 83° |
| 2026-04-22 17:56 | 40.19655 | -102.67667 | 33330 ft | 478 kts | 83° |
| 2026-04-22 17:56 | 40.20314 | -102.63416 | 33760 ft | 477 kts | 83° |
| 2026-04-22 17:56 | 40.20967 | -102.59169 | 34144 ft | 475 kts | 83° |
| 2026-04-22 17:57 | 40.21614 | -102.54933 | 34505 ft | 475 kts | 83° |
| 2026-04-22 17:57 | 40.22260 | -102.50694 | 34641 ft | 475 kts | 83° |
| 2026-04-22 17:57 | 40.22905 | -102.46483 | 34675 ft | 470 kts | 83° |
| 2026-04-22 17:58 | 40.24185 | -102.38127 | 34667 ft | 468 kts | 83° |
| 2026-04-22 17:58 | 40.25460 | -102.29769 | 34680 ft | 468 kts | 83° |
| 2026-04-22 17:59 | 40.26717 | -102.21413 | 34677 ft | 468 kts | 83° |
| 2026-04-22 17:59 | 40.27972 | -102.13051 | 34688 ft | 468 kts | 83° |
| 2026-04-22 18:00 | 40.29016 | -102.06096 | 34685 ft | 468 kts | 83° |
| 2026-04-22 18:00 | 40.30469 | -101.96307 | 34696 ft | 468 kts | 83° |
| 2026-04-22 18:01 | 40.31704 | -101.87933 | 34728 ft | 468 kts | 83° |
| 2026-04-22 18:01 | 40.32930 | -101.79604 | 34749 ft | 468 kts | 83° |
| 2026-04-22 18:02 | 40.34167 | -101.71171 | 34768 ft | 468 kts | 83° |
| 2026-04-22 18:02 | 40.35394 | -101.62796 | 34766 ft | 468 kts | 82° |
| 2026-04-22 18:03 | 40.36596 | -101.54475 | 34775 ft | 467 kts | 83° |
| 2026-04-22 18:03 | 40.37794 | -101.46104 | 34772 ft | 467 kts | 82° |
| 2026-04-22 18:04 | 40.39821 | -101.37995 | 34774 ft | 472 kts | 68° |
| 2026-04-22 18:04 | 40.42515 | -101.30140 | 34766 ft | 472 kts | 68° |
| 2026-04-22 18:05 | 40.45179 | -101.22270 | 34748 ft | 471 kts | 68° |
| 2026-04-22 18:05 | 40.47839 | -101.14400 | 34746 ft | 471 kts | 68° |
| 2026-04-22 18:06 | 40.50498 | -101.06530 | 34749 ft | 471 kts | 68° |
| 2026-04-22 18:06 | 40.53153 | -100.98644 | 34763 ft | 472 kts | 68° |
| 2026-04-22 18:07 | 40.55804 | -100.90760 | 34761 ft | 471 kts | 68° |
| 2026-04-22 18:07 | 40.58445 | -100.82886 | 34765 ft | 471 kts | 68° |
| 2026-04-22 18:08 | 40.61049 | -100.75083 | 34765 ft | 472 kts | 69° |
| 2026-04-22 18:08 | 40.63680 | -100.67180 | 34769 ft | 472 kts | 68° |
| 2026-04-22 18:09 | 40.66306 | -100.59268 | 34771 ft | 471 kts | 69° |
| 2026-04-22 18:09 | 40.68925 | -100.51346 | 34778 ft | 471 kts | 68° |
| 2026-04-22 18:10 | 40.71542 | -100.43427 | 34770 ft | 471 kts | 68° |
| 2026-04-22 18:10 | 40.74155 | -100.35501 | 34781 ft | 471 kts | 69° |
| 2026-04-22 18:11 | 40.76756 | -100.27563 | 34798 ft | 471 kts | 69° |
| 2026-04-22 18:11 | 40.79337 | -100.19669 | 34796 ft | 472 kts | 69° |
| 2026-04-22 18:12 | 40.81934 | -100.11728 | 34822 ft | 471 kts | 69° |
| 2026-04-22 18:12 | 40.84100 | -100.05064 | 34836 ft | 471 kts | 69° |
| 2026-04-22 18:13 | 40.87093 | -99.95822 | 34855 ft | 471 kts | 69° |
| 2026-04-22 18:13 | 40.89672 | -99.87862 | 34862 ft | 471 kts | 69° |
| 2026-04-22 18:14 | 40.92244 | -99.79884 | 34850 ft | 472 kts | 69° |
| 2026-04-22 18:14 | 40.94815 | -99.71901 | 34856 ft | 472 kts | 69° |
| 2026-04-22 18:15 | 40.97379 | -99.63913 | 34848 ft | 472 kts | 69° |
| 2026-04-22 18:15 | 40.99941 | -99.55915 | 34836 ft | 472 kts | 69° |
| 2026-04-22 18:16 | 41.02497 | -99.47902 | 34832 ft | 472 kts | 69° |
| 2026-04-22 18:16 | 41.05043 | -99.39877 | 34803 ft | 473 kts | 69° |
| 2026-04-22 18:17 | 41.07560 | -99.31936 | 34807 ft | 473 kts | 69° |
| 2026-04-22 18:17 | 41.10133 | -99.23785 | 34818 ft | 474 kts | 70° |
| 2026-04-22 18:18 | 41.12670 | -99.15711 | 34825 ft | 475 kts | 70° |
| 2026-04-22 18:18 | 41.15211 | -99.07626 | 34820 ft | 475 kts | 70° |
| 2026-04-22 18:19 | 41.17753 | -98.99522 | 34816 ft | 476 kts | 70° |
| 2026-04-22 18:19 | 41.20285 | -98.91407 | 34830 ft | 476 kts | 70° |
| 2026-04-22 18:20 | 41.22819 | -98.83273 | 34849 ft | 477 kts | 70° |
| 2026-04-22 18:20 | 41.25347 | -98.75125 | 34856 ft | 477 kts | 70° |
| 2026-04-22 18:21 | 41.27863 | -98.66982 | 34833 ft | 477 kts | 70° |
| 2026-04-22 18:21 | 41.30366 | -98.58868 | 34841 ft | 477 kts | 70° |
| 2026-04-22 18:22 | 41.32882 | -98.50697 | 34845 ft | 477 kts | 70° |
| 2026-04-22 18:22 | 41.35392 | -98.42520 | 34853 ft | 477 kts | 70° |
| 2026-04-22 18:23 | 41.37862 | -98.34311 | 34851 ft | 477 kts | 72° |
| 2026-04-22 18:23 | 41.39964 | -98.25936 | 34853 ft | 477 kts | 75° |
| 2026-04-22 18:24 | 41.42731 | -98.13219 | 34853 ft | 477 kts | 76° |
| 2026-04-22 18:25 | 41.45616 | -98.00518 | 34869 ft | 477 kts | 75° |
| 2026-04-22 18:25 | 41.47583 | -97.92061 | 34867 ft | 478 kts | 74° |
| 2026-04-22 18:26 | 41.50487 | -97.79350 | 34887 ft | 478 kts | 75° |
| 2026-04-22 18:26 | 41.52409 | -97.70866 | 34895 ft | 478 kts | 75° |
| 2026-04-22 18:27 | 41.54332 | -97.62376 | 34897 ft | 478 kts | 75° |
| 2026-04-22 18:27 | 41.56243 | -97.53878 | 34889 ft | 478 kts | 75° |
| 2026-04-22 18:28 | 41.58151 | -97.45370 | 34885 ft | 478 kts | 75° |
| 2026-04-22 18:28 | 41.60059 | -97.36869 | 34892 ft | 478 kts | 75° |
| 2026-04-22 18:29 | 41.61959 | -97.28361 | 34906 ft | 478 kts | 75° |
| 2026-04-22 18:29 | 41.63852 | -97.19843 | 34889 ft | 478 kts | 75° |
| 2026-04-22 18:30 | 41.66667 | -97.07055 | 34902 ft | 478 kts | 75° |
| 2026-04-22 18:31 | 41.68543 | -96.98514 | 34902 ft | 478 kts | 75° |
| 2026-04-22 18:31 | 41.70097 | -96.91428 | 34902 ft | 478 kts | 75° |
| 2026-04-22 18:32 | 41.71959 | -96.82883 | 34893 ft | 478 kts | 75° |
| 2026-04-22 18:32 | 41.74117 | -96.72949 | 34898 ft | 478 kts | 75° |
| 2026-04-22 18:33 | 41.75663 | -96.65800 | 34894 ft | 478 kts | 75° |
| 2026-04-22 18:33 | 41.77507 | -96.57233 | 34894 ft | 478 kts | 75° |
| 2026-04-22 18:34 | 41.79335 | -96.48680 | 34919 ft | 478 kts | 75° |
| 2026-04-22 18:34 | 41.81164 | -96.40124 | 34935 ft | 478 kts | 75° |
| 2026-04-22 18:35 | 41.82988 | -96.31567 | 34935 ft | 478 kts | 75° |
| 2026-04-22 18:35 | 41.84810 | -96.22990 | 34939 ft | 478 kts | 75° |
| 2026-04-22 18:36 | 41.86623 | -96.14413 | 34936 ft | 478 kts | 75° |
| 2026-04-22 18:36 | 41.88429 | -96.05820 | 34926 ft | 478 kts | 74° |
| 2026-04-22 18:37 | 41.90221 | -95.97289 | 34921 ft | 478 kts | 75° |
| 2026-04-22 18:37 | 41.92016 | -95.88685 | 34921 ft | 479 kts | 75° |
| 2026-04-22 18:38 | 41.93795 | -95.80074 | 34927 ft | 479 kts | 75° |
| 2026-04-22 18:38 | 41.95577 | -95.71455 | 34926 ft | 479 kts | 75° |
| 2026-04-22 18:39 | 41.98253 | -95.58518 | 34958 ft | 479 kts | 74° |
| 2026-04-22 18:39 | 42.00013 | -95.49900 | 34952 ft | 478 kts | 74° |
| 2026-04-22 18:40 | 42.01770 | -95.41271 | 34959 ft | 479 kts | 75° |
| 2026-04-22 18:40 | 42.03520 | -95.32631 | 34949 ft | 479 kts | 74° |
| 2026-04-22 18:41 | 42.05269 | -95.23987 | 34961 ft | 479 kts | 74° |
| 2026-04-22 18:41 | 42.07013 | -95.15333 | 34958 ft | 480 kts | 74° |
| 2026-04-22 18:42 | 42.08734 | -95.06749 | 34964 ft | 480 kts | 74° |
| 2026-04-22 18:42 | 42.10473 | -94.98047 | 34958 ft | 479 kts | 74° |
| 2026-04-22 18:43 | 42.12199 | -94.89382 | 34957 ft | 479 kts | 74° |
| 2026-04-22 18:43 | 42.13916 | -94.80707 | 34954 ft | 479 kts | 74° |
| 2026-04-22 18:44 | 42.15620 | -94.72037 | 34964 ft | 479 kts | 74° |
| 2026-04-22 18:44 | 42.17324 | -94.63361 | 34974 ft | 479 kts | 74° |
| 2026-04-22 18:45 | 42.19016 | -94.54681 | 34982 ft | 479 kts | 74° |
| 2026-04-22 18:45 | 42.20701 | -94.45997 | 34981 ft | 479 kts | 74° |
| 2026-04-22 18:46 | 42.22376 | -94.37315 | 34983 ft | 479 kts | 74° |
| 2026-04-22 18:46 | 42.24056 | -94.28609 | 34984 ft | 479 kts | 74° |
| 2026-04-22 18:47 | 42.25724 | -94.19906 | 34978 ft | 479 kts | 74° |
| 2026-04-22 18:47 | 42.27382 | -94.11203 | 34972 ft | 479 kts | 74° |
| 2026-04-22 18:48 | 42.29036 | -94.02498 | 34965 ft | 478 kts | 74° |
| 2026-04-22 18:48 | 42.30691 | -93.93793 | 34945 ft | 478 kts | 74° |
| 2026-04-22 18:49 | 42.32340 | -93.85080 | 34942 ft | 478 kts | 74° |
| 2026-04-22 18:49 | 42.33975 | -93.76374 | 34960 ft | 478 kts | 73° |
| 2026-04-22 18:50 | 42.35592 | -93.67671 | 34999 ft | 477 kts | 74° |
| 2026-04-22 18:50 | 42.37194 | -93.59022 | 34990 ft | 477 kts | 74° |
| 2026-04-22 18:51 | 42.38791 | -93.50383 | 34981 ft | 477 kts | 74° |
| 2026-04-22 18:51 | 42.40402 | -93.41617 | 34988 ft | 477 kts | 74° |
| 2026-04-22 18:52 | 42.41993 | -93.32912 | 34983 ft | 476 kts | 74° |
| 2026-04-22 18:52 | 42.43589 | -93.24209 | 34981 ft | 476 kts | 74° |
| 2026-04-22 18:53 | 42.45177 | -93.15500 | 34985 ft | 477 kts | 74° |
| 2026-04-22 18:53 | 42.46745 | -93.06783 | 34983 ft | 477 kts | 74° |
| 2026-04-22 18:54 | 42.48310 | -92.98065 | 34991 ft | 476 kts | 73° |
| 2026-04-22 18:54 | 42.49878 | -92.89352 | 34986 ft | 476 kts | 74° |
| 2026-04-22 18:55 | 42.51429 | -92.80641 | 34988 ft | 475 kts | 74° |
| 2026-04-22 18:55 | 42.52968 | -92.71932 | 34996 ft | 475 kts | 74° |
| 2026-04-22 18:56 | 42.54502 | -92.63215 | 35007 ft | 475 kts | 73° |
| 2026-04-22 18:56 | 42.56035 | -92.54515 | 35009 ft | 474 kts | 73° |
| 2026-04-22 18:57 | 42.57561 | -92.45811 | 35005 ft | 474 kts | 74° |
| 2026-04-22 18:57 | 42.59071 | -92.37116 | 35015 ft | 474 kts | 74° |
| 2026-04-22 18:58 | 42.60578 | -92.28415 | 35014 ft | 474 kts | 73° |
| 2026-04-22 18:58 | 42.62078 | -92.19710 | 35008 ft | 473 kts | 73° |
| 2026-04-22 18:59 | 42.63564 | -92.11034 | 35015 ft | 473 kts | 73° |
| 2026-04-22 18:59 | 42.64352 | -92.02113 | 35011 ft | 476 kts | 83° |
| 2026-04-22 19:00 | 42.64820 | -91.93141 | 35004 ft | 476 kts | 83° |
| 2026-04-22 19:00 | 42.65292 | -91.84176 | 35010 ft | 476 kts | 83° |
| 2026-04-22 19:01 | 42.65754 | -91.75214 | 35013 ft | 475 kts | 83° |
| 2026-04-22 19:01 | 42.66205 | -91.66329 | 35014 ft | 475 kts | 83° |
| 2026-04-22 19:02 | 42.66655 | -91.57305 | 35011 ft | 475 kts | 83° |
| 2026-04-22 19:02 | 42.67089 | -91.48355 | 35023 ft | 474 kts | 83° |
| 2026-04-22 19:03 | 42.67509 | -91.39494 | 35022 ft | 474 kts | 83° |
| 2026-04-22 19:03 | 42.67931 | -91.30549 | 35022 ft | 473 kts | 83° |
| 2026-04-22 19:04 | 42.68347 | -91.21569 | 35023 ft | 473 kts | 83° |
| 2026-04-22 19:04 | 42.68755 | -91.12650 | 35030 ft | 473 kts | 83° |
| 2026-04-22 19:05 | 42.69156 | -91.03791 | 35030 ft | 472 kts | 83° |
| 2026-04-22 19:05 | 42.69550 | -90.94886 | 35025 ft | 472 kts | 83° |
| 2026-04-22 19:06 | 42.69942 | -90.85954 | 34227 ft | 478 kts | 83° |
| 2026-04-22 19:06 | 42.70144 | -90.81378 | 33195 ft | 487 kts | 84° |
| 2026-04-22 19:07 | 42.70513 | -90.72376 | 32435 ft | 471 kts | 84° |
| 2026-04-22 19:07 | 42.70693 | -90.67941 | 31889 ft | 468 kts | 84° |
| 2026-04-22 19:07 | 42.70874 | -90.63539 | 31348 ft | 465 kts | 84° |
| 2026-04-22 19:07 | 42.71053 | -90.59183 | 30806 ft | 462 kts | 84° |
| 2026-04-22 19:08 | 42.71230 | -90.54824 | 30267 ft | 458 kts | 84° |
| 2026-04-22 19:08 | 42.71405 | -90.50516 | 29683 ft | 455 kts | 84° |
| 2026-04-22 19:08 | 42.71575 | -90.46250 | 29176 ft | 449 kts | 84° |
| 2026-04-22 19:08 | 42.71741 | -90.42030 | 28669 ft | 444 kts | 84° |
| 2026-04-22 19:09 | 42.71902 | -90.37862 | 28189 ft | 439 kts | 84° |
| 2026-04-22 19:09 | 42.72056 | -90.33747 | 27701 ft | 434 kts | 84° |
| 2026-04-22 19:09 | 42.72156 | -90.31043 | 27395 ft | 431 kts | 84° |
| 2026-04-22 19:09 | 42.72354 | -90.25627 | 26786 ft | 425 kts | 84° |
| 2026-04-22 19:10 | 42.72503 | -90.21635 | 26361 ft | 421 kts | 84° |
| 2026-04-22 19:10 | 42.72654 | -90.17670 | 25942 ft | 418 kts | 84° |
| 2026-04-22 19:10 | 42.72803 | -90.13735 | 25504 ft | 416 kts | 84° |
| 2026-04-22 19:10 | 42.72948 | -90.09812 | 25071 ft | 414 kts | 84° |
| 2026-04-22 19:11 | 42.73088 | -90.05917 | 24611 ft | 412 kts | 84° |
| 2026-04-22 19:11 | 42.73224 | -90.02029 | 24169 ft | 411 kts | 84° |
| 2026-04-22 19:11 | 42.73358 | -89.98145 | 23714 ft | 411 kts | 84° |
| 2026-04-22 19:11 | 42.73491 | -89.94259 | 23177 ft | 411 kts | 84° |
| 2026-04-22 19:12 | 42.73622 | -89.90393 | 22705 ft | 408 kts | 84° |
| 2026-04-22 19:12 | 42.73752 | -89.86553 | 22221 ft | 405 kts | 84° |
| 2026-04-22 19:12 | 42.73883 | -89.82737 | 21795 ft | 401 kts | 84° |
| 2026-04-22 19:12 | 42.74011 | -89.78953 | 21275 ft | 400 kts | 84° |
| 2026-04-22 19:13 | 42.74134 | -89.75197 | 20781 ft | 398 kts | 84° |
| 2026-04-22 19:13 | 42.74255 | -89.71459 | 20332 ft | 394 kts | 84° |
| 2026-04-22 19:13 | 42.74372 | -89.67795 | 19887 ft | 390 kts | 84° |
| 2026-04-22 19:13 | 42.74491 | -89.64055 | 19383 ft | 389 kts | 84° |
| 2026-04-22 19:14 | 42.74610 | -89.60398 | 18863 ft | 388 kts | 84° |
| 2026-04-22 19:14 | 42.74727 | -89.56764 | 18409 ft | 384 kts | 85° |
| 2026-04-22 19:14 | 42.74840 | -89.53209 | 17965 ft | 380 kts | 85° |
| 2026-04-22 19:14 | 42.74949 | -89.49604 | 17408 ft | 378 kts | 85° |
| 2026-04-22 19:15 | 42.75021 | -89.47204 | 17064 ft | 375 kts | 85° |
| 2026-04-22 19:15 | 42.75159 | -89.42529 | 16417 ft | 371 kts | 85° |
| 2026-04-22 19:15 | 42.75263 | -89.39033 | 15932 ft | 368 kts | 84° |
| 2026-04-22 19:15 | 42.75366 | -89.35561 | 15439 ft | 366 kts | 85° |
| 2026-04-22 19:16 | 42.75467 | -89.32128 | 14948 ft | 363 kts | 84° |
| 2026-04-22 19:16 | 42.75564 | -89.28712 | 14525 ft | 359 kts | 85° |
| 2026-04-22 19:16 | 42.75659 | -89.25322 | 14087 ft | 356 kts | 85° |
| 2026-04-22 19:16 | 42.75752 | -89.21962 | 13628 ft | 354 kts | 84° |
| 2026-04-22 19:17 | 42.75844 | -89.18634 | 13124 ft | 351 kts | 85° |
| 2026-04-22 19:17 | 42.75931 | -89.15364 | 12748 ft | 345 kts | 85° |
| 2026-04-22 19:17 | 42.76007 | -89.12109 | 12435 ft | 338 kts | 85° |
| 2026-04-22 19:17 | 42.76073 | -89.08947 | 12137 ft | 331 kts | 85° |
| 2026-04-22 19:18 | 42.76135 | -89.05845 | 11851 ft | 325 kts | 86° |
| 2026-04-22 19:18 | 42.76196 | -89.02810 | 11563 ft | 320 kts | 86° |
| 2026-04-22 19:18 | 42.76267 | -88.99787 | 11280 ft | 316 kts | 85° |
| 2026-04-22 19:18 | 42.76370 | -88.96815 | 11000 ft | 314 kts | 84° |
| 2026-04-22 19:19 | 42.76488 | -88.93850 | 10722 ft | 312 kts | 84° |
| 2026-04-22 19:19 | 42.76570 | -88.91897 | 10536 ft | 311 kts | 85° |
| 2026-04-22 19:19 | 42.76691 | -88.88969 | 10260 ft | 309 kts | 85° |
| 2026-04-22 19:19 | 42.76845 | -88.85092 | 9959 ft | 302 kts | 85° |
| 2026-04-22 19:20 | 42.76906 | -88.83216 | 9804 ft | 298 kts | 86° |
| 2026-04-22 19:20 | 42.76979 | -88.80418 | 9561 ft | 293 kts | 86° |
| 2026-04-22 19:20 | 42.77042 | -88.77655 | 9296 ft | 291 kts | 85° |
| 2026-04-22 19:20 | 42.77100 | -88.74914 | 9010 ft | 289 kts | 86° |
| 2026-04-22 19:21 | 42.77159 | -88.72183 | 8720 ft | 288 kts | 86° |
| 2026-04-22 19:21 | 42.77220 | -88.69469 | 8445 ft | 286 kts | 86° |
| 2026-04-22 19:21 | 42.77308 | -88.66773 | 8169 ft | 284 kts | 81° |
| 2026-04-22 19:21 | 42.77712 | -88.64161 | 7896 ft | 281 kts | 74° |
| 2026-04-22 19:22 | 42.78175 | -88.61580 | 7619 ft | 280 kts | 74° |
| 2026-04-22 19:22 | 42.78630 | -88.59015 | 7346 ft | 278 kts | 74° |
| 2026-04-22 19:22 | 42.79081 | -88.56458 | 7075 ft | 277 kts | 75° |
| 2026-04-22 19:22 | 42.79532 | -88.53912 | 6806 ft | 276 kts | 75° |
| 2026-04-22 19:23 | 42.79979 | -88.51384 | 6535 ft | 274 kts | 75° |
| 2026-04-22 19:23 | 42.80420 | -88.48856 | 6255 ft | 274 kts | 75° |
| 2026-04-22 19:23 | 42.80855 | -88.46339 | 5983 ft | 273 kts | 75° |
| 2026-04-22 19:23 | 42.81288 | -88.43838 | 5711 ft | 272 kts | 76° |
| 2026-04-22 19:24 | 42.81745 | -88.41335 | 5448 ft | 272 kts | 71° |
| 2026-04-22 19:24 | 42.82362 | -88.38901 | 5182 ft | 272 kts | 70° |
| 2026-04-22 19:24 | 42.82979 | -88.36470 | 4914 ft | 272 kts | 71° |
| 2026-04-22 19:24 | 42.83587 | -88.34062 | 4768 ft | 264 kts | 71° |
| 2026-04-22 19:25 | 42.84173 | -88.31740 | 4658 ft | 254 kts | 71° |
| 2026-04-22 19:25 | 42.84738 | -88.29505 | 4560 ft | 244 kts | 71° |
| 2026-04-22 19:25 | 42.85277 | -88.27366 | 4449 ft | 234 kts | 71° |
| 2026-04-22 19:25 | 42.85769 | -88.25312 | 4344 ft | 223 kts | 72° |
| 2026-04-22 19:26 | 42.86227 | -88.23345 | 4248 ft | 215 kts | 72° |
| 2026-04-22 19:26 | 42.86673 | -88.21418 | 4158 ft | 212 kts | 72° |
| 2026-04-22 19:26 | 42.87117 | -88.19502 | 4066 ft | 211 kts | 72° |
| 2026-04-22 19:26 | 42.87569 | -88.17600 | 3903 ft | 210 kts | 71° |
| 2026-04-22 19:27 | 42.88033 | -88.15717 | 3726 ft | 208 kts | 71° |
| 2026-04-22 19:27 | 42.88487 | -88.13879 | 3593 ft | 201 kts | 72° |
| 2026-04-22 19:27 | 42.88925 | -88.12099 | 3401 ft | 194 kts | 71° |
| 2026-04-22 19:27 | 42.89342 | -88.10406 | 3228 ft | 184 kts | 72° |
| 2026-04-22 19:28 | 42.89738 | -88.08798 | 3069 ft | 173 kts | 70° |
| 2026-04-22 19:28 | 42.90102 | -88.07317 | 2999 ft | 157 kts | 71° |
| 2026-04-22 19:28 | 42.90437 | -88.05951 | 2857 ft | 146 kts | 71° |
| 2026-04-22 19:28 | 42.90753 | -88.04665 | 2707 ft | 142 kts | 70° |
| 2026-04-22 19:29 | 42.91061 | -88.03412 | 2518 ft | 138 kts | 71° |
| 2026-04-22 19:29 | 42.91362 | -88.02184 | 2381 ft | 134 kts | 70° |
| 2026-04-22 19:29 | 42.91661 | -88.00962 | 2174 ft | 134 kts | 72° |
| 2026-04-22 19:29 | 42.91954 | -87.99768 | 1981 ft | 133 kts | 70° |
| 2026-04-22 19:30 | 42.92146 | -87.98981 | 1869 ft | 131 kts | 69° |
| 2026-04-22 19:30 | 42.92532 | -87.97406 | 1641 ft | 130 kts | 69° |
| 2026-04-22 19:30 | 42.92818 | -87.96234 | 1450 ft | 131 kts | 70° |
| 2026-04-22 19:30 | 42.93106 | -87.95060 | 1273 ft | 129 kts | 67° |
| 2026-04-22 19:31 | 42.93391 | -87.93894 | 1096 ft | 131 kts | 70° |
| 2026-04-22 19:31 | 42.93677 | -87.92716 | 915 ft | 130 kts | 68° |
| 2026-04-22 19:31 | 42.93964 | -87.91546 | 750 ft | 130 kts | 67° |
| 2026-04-22 19:31 | 42.94242 | -87.90443 | 679 ft | 106 kts | 71° |
| 2026-04-22 19:32 | 42.94405 | -87.89765 | 681 ft | 49 kts | 72° |
| 2026-04-22 19:32 | 42.94480 | -87.89538 | 680 ft | 16 kts | 33° |
| 2026-04-22 19:32 | 42.94606 | -87.89505 | 680 ft | 21 kts | 2° |
| 2026-04-22 19:32 | 42.94763 | -87.89541 | 677 ft | 25 kts | 341° |
| 2026-04-22 19:33 | 42.94937 | -87.89593 | 674 ft | 19 kts | 1° |
| 2026-04-22 19:33 | 42.94972 | -87.89678 | 675 ft | 12 kts | 265° |
| 2026-04-22 19:33 | 42.94953 | -87.89812 | 675 ft | 16 kts | 244° |
| 2026-04-22 19:33 | 42.94970 | -87.89947 | 677 ft | 13 kts | 334° |
| 2026-04-22 19:34 | 42.94996 | -87.89965 | 677 ft | 0 kts | 330° |